Time;durP1;ratioP1;P1;durP2;ratioP2;P2;SDS_P1;SDS_P2;PMS_P1;PMS_P2;Temp;Humidity;BMP_temperature;BMP_pressure;BME280_temperature;BME280_humidity;BME280_pressure;Samples;Min_cycle;Max_cycle;Signal;HPM_P1;HPM_P2
2022/06/26 04:16:49;;;;;;;3.58;2.00;;;;;;;17.62;100.00;100021.91;5357691;22;20397;-70
2022/06/26 04:19:18;;;;;;;3.15;2.10;;;;;;;17.68;99.08;100018.34;5013768;28;20049;-70
2022/06/26 04:21:43;;;;;;;2.97;1.98;;;;;;;17.80;98.79;100008.47;4997730;28;20034;-70
2022/06/26 04:24:10;;;;;;;3.20;2.20;;;;;;;17.87;98.17;100003.81;5014143;28;20042;-70
2022/06/26 04:26:36;;;;;;;3.17;2.40;;;;;;;17.87;98.35;100011.09;5027445;28;20072;-70
2022/06/26 04:29:01;;;;;;;4.57;3.28;;;;;;;17.87;99.99;100014.59;5017355;28;20029;-71
2022/06/26 04:31:27;;;;;;;6.90;3.53;;;;;;;17.89;99.65;100015.19;5017320;28;20124;-71
2022/06/26 04:33:53;;;;;;;6.95;4.30;;;;;;;17.93;99.79;100012.88;5017128;28;20037;-71
2022/06/26 04:36:19;;;;;;;6.47;2.58;;;;;;;17.97;100.00;100015.94;5017103;28;20072;-71
2022/06/26 04:38:44;;;;;;;3.88;2.40;;;;;;;17.94;99.22;100013.69;5016734;28;20045;-71
2022/06/26 04:43:54;;;;;;;3.67;2.40;;;;;;;18.07;98.96;100027.00;5017107;28;20042;-71
2022/06/26 04:46:20;;;;;;;3.77;2.40;;;;;;;18.08;98.12;100029.47;5017247;28;20437;-70
2022/06/26 04:48:46;;;;;;;5.15;2.63;;;;;;;18.13;98.08;100035.00;5016565;28;20037;-71
2022/06/26 04:51:13;;;;;;;;;;;;;;;18.21;97.46;100050.03;5017296;28;20509;-71
2022/06/26 04:53:39;;;;;;;3.00;2.47;;;;;;;18.26;95.92;100052.06;5016874;28;19913;-71
2022/06/26 04:56:05;;;;;;;2.33;2.00;;;;;;;18.32;95.16;100056.50;5000354;28;20025;-71
2022/06/26 04:58:40;;;;;;;4.32;2.30;;;;;;;18.36;95.18;100055.00;5016486;28;20516;-71
2022/06/26 05:01:06;;;;;;;2.42;2.22;;;;;;;18.39;94.49;100062.66;5000164;28;20053;-71
2022/06/26 05:03:52;;;;;;;2.88;2.50;;;;;;;18.46;94.21;100073.34;5034240;28;20112;-71
2022/06/26 05:06:34;;;;;;;6.20;3.25;;;;;;;18.52;94.68;100078.66;5016647;28;20041;-70
2022/06/26 05:09:25;;;;;;;4.30;2.63;;;;;;;18.55;95.31;100083.56;5029873;28;20041;-71
2022/06/26 05:11:51;;;;;;;5.00;2.67;;;;;;;18.62;95.41;100087.00;5034247;28;20030;-71
2022/06/26 05:14:17;;;;;;;3.38;2.55;;;;;;;18.66;95.64;100096.31;5015899;28;20099;-71
2022/06/26 05:16:54;;;;;;;3.67;2.85;;;;;;;18.73;95.27;100096.22;5015925;28;20034;-50
2022/06/26 05:19:25;;;;;;;4.50;2.65;;;;;;;18.77;95.01;100092.00;5000312;28;20042;-49
2022/06/26 05:21:52;;;;;;;3.55;2.45;;;;;;;18.83;94.99;100082.97;5015986;28;20037;-54
2022/06/26 05:24:19;;;;;;;4.38;2.50;;;;;;;18.82;95.31;100072.41;5016016;28;20051;-54
2022/06/26 05:26:46;;;;;;;6.32;2.63;;;;;;;18.80;95.07;100069.97;5015962;28;20059;-54
2022/06/26 05:29:13;;;;;;;3.20;2.43;;;;;;;18.79;95.37;100071.00;5015748;28;20045;-50
2022/06/26 05:31:38;;;;;;;2.92;2.40;;;;;;;18.70;94.97;100065.09;5033707;28;20112;-49
2022/06/26 05:34:04;;;;;;;5.50;2.38;;;;;;;18.76;95.37;100073.34;5015811;28;20045;-49
2022/06/26 05:36:31;;;;;;;5.53;2.70;;;;;;;18.81;94.54;100079.69;5015626;28;20033;-49
2022/06/26 05:38:57;;;;;;;4.50;2.55;;;;;;;18.87;94.73;100086.88;5015522;28;20284;-53
2022/06/26 05:41:22;;;;;;;4.00;2.20;;;;;;;18.90;94.89;100097.19;5015737;28;20490;-53
2022/06/26 05:43:48;;;;;;;3.42;2.20;;;;;;;18.95;94.58;100097.31;5015654;28;20045;-53
2022/06/26 05:46:13;;;;;;;2.88;2.10;;;;;;;19.00;93.52;100082.31;5015501;28;20490;-51
2022/06/26 05:48:47;;;;;;;6.20;2.60;;;;;;;18.98;93.39;100074.47;5033253;28;20116;-54
2022/06/26 05:51:33;;;;;;;4.22;2.80;;;;;;;19.07;93.33;100077.63;5015680;28;20395;-55
2022/06/26 05:54:05;;;;;;;9.35;2.95;;;;;;;19.14;93.13;100081.84;5015454;28;20029;-55
2022/06/26 05:56:36;;;;;;;4.15;2.25;;;;;;;19.24;93.61;100076.72;5015341;28;20056;-55
2022/06/26 05:59:12;;;;;;;3.50;2.22;;;;;;;19.52;89.88;100077.88;5032953;28;20029;-52
2022/06/26 06:01:58;;;;;;;3.13;2.17;;;;;;;19.87;86.64;100069.75;5015635;28;20119;-53
2022/06/26 06:04:24;;;;;;;3.55;1.75;;;;;;;19.88;86.56;100076.78;5015428;28;20041;-52
2022/06/26 06:06:49;;;;;;;2.92;2.03;;;;;;;19.85;86.68;100076.47;5015280;28;20029;-56
2022/06/26 06:09:15;;;;;;;3.65;2.00;;;;;;;19.83;85.49;100079.41;5015204;28;20037;-48
2022/06/26 06:11:41;;;;;;;3.72;2.17;;;;;;;19.81;86.20;100081.50;5015249;28;20034;-49
2022/06/26 06:14:07;;;;;;;3.13;2.10;;;;;;;19.81;84.42;100091.50;5015074;28;20410;-50
2022/06/26 06:16:33;;;;;;;4.68;2.10;;;;;;;19.86;85.58;100105.13;5014923;28;20516;-50
2022/06/26 06:18:58;;;;;;;2.55;1.95;;;;;;;19.85;85.74;100106.19;5032551;28;20033;-50
2022/06/26 06:21:28;;;;;;;3.10;2.03;;;;;;;19.97;86.01;100098.91;5014856;28;20065;-49
2022/06/26 06:23:53;;;;;;;4.10;2.25;;;;;;;19.99;86.48;100096.75;5014931;28;20092;-50
2022/06/26 06:26:19;;;;;;;2.92;2.20;;;;;;;20.04;86.62;100113.09;5031953;28;20041;-50
2022/06/26 06:28:44;;;;;;;2.70;2.10;;;;;;;20.09;86.77;100120.50;5014557;28;20120;-51
2022/06/26 06:31:10;;;;;;;2.78;2.22;;;;;;;20.11;84.50;100119.19;5014848;28;20697;-48
2022/06/26 06:33:36;;;;;;;3.17;1.90;;;;;;;20.13;83.96;100122.47;5014954;28;20033;-48
2022/06/26 06:36:01;;;;;;;2.30;1.90;;;;;;;20.20;84.82;100122.34;5014919;28;20094;-49
2022/06/26 06:38:30;;;;;;;4.15;1.95;;;;;;;20.21;85.81;100130.22;5014480;28;20034;-53
2022/06/26 06:40:58;;;;;;;4.20;2.38;;;;;;;20.27;85.51;100118.44;5014678;28;20064;-47
2022/06/26 06:43:32;;;;;;;3.15;2.40;;;;;;;20.32;85.42;100120.41;5014753;28;20041;-48
2022/06/26 06:46:18;;;;;;;3.47;2.17;;;;;;;20.36;83.99;100120.78;5031587;28;20048;-50
2022/06/26 06:48:55;;;;;;;4.80;2.50;;;;;;;20.45;84.25;100125.56;5014293;28;20044;-52
2022/06/26 06:51:32;;;;;;;3.57;2.00;;;;;;;20.51;85.09;100123.78;5014440;28;20041;-53
2022/06/26 06:53:57;;;;;;;3.95;1.98;;;;;;;20.56;84.57;100121.19;5032253;28;20041;-52
2022/06/26 06:56:23;;;;;;;4.70;2.58;;;;;;;20.61;83.58;100124.00;5014314;28;20033;-52
2022/06/26 06:58:48;;;;;;;2.78;2.00;;;;;;;20.69;83.58;100133.63;5014134;28;20045;-49
2022/06/26 07:01:14;;;;;;;2.72;2.10;;;;;;;20.73;82.31;100134.75;5014126;28;20028;-51
2022/06/26 07:03:39;;;;;;;3.60;2.22;;;;;;;20.85;81.84;100133.63;5021075;28;20047;-49
2022/06/26 07:06:05;;;;;;;4.07;2.30;;;;;;;20.92;81.48;100130.78;5011610;28;20084;-48
2022/06/26 07:08:32;;;;;;;3.70;2.65;;;;;;;21.00;81.97;100135.81;5007519;28;20053;-48
2022/06/26 07:10:57;;;;;;;2.95;2.20;;;;;;;21.00;82.58;100138.53;5031750;28;20037;-49
2022/06/26 07:13:23;;;;;;;3.90;2.30;;;;;;;21.10;80.49;100132.44;5031339;28;20045;-50
2022/06/26 07:15:49;;;;;;;2.67;1.85;;;;;;;21.13;79.24;100140.09;5013962;28;20163;-53
2022/06/26 07:18:15;;;;;;;2.35;1.80;;;;;;;21.20;77.35;100132.63;5031051;28;20052;-51
2022/06/26 07:20:41;;;;;;;6.07;1.83;;;;;;;21.28;75.51;100136.81;5013334;28;20029;-50
2022/06/26 07:23:07;;;;;;;2.88;2.10;;;;;;;21.30;76.35;100135.50;5013637;28;20033;-52
2022/06/26 07:25:45;;;;;;;3.67;2.00;;;;;;;21.39;75.68;100135.94;4999439;28;20045;-48
2022/06/26 07:28:11;;;;;;;2.38;1.83;;;;;;;21.49;76.67;100133.38;5013335;28;20123;-51
2022/06/26 07:30:37;;;;;;;2.60;2.15;;;;;;;21.60;75.19;100126.22;5013468;28;20124;-49
2022/06/26 07:34:12;;;;;;;2.42;1.70;;;;;;;21.61;73.69;100127.88;5013309;28;20088;-52
2022/06/26 07:35:55;;;;;;;2.65;1.83;;;;;;;21.79;72.88;100132.19;5013295;28;20039;-52
2022/06/26 07:38:21;;;;;;;2.77;1.80;;;;;;;21.93;74.56;100136.19;5013149;28;20455;-53
2022/06/26 07:40:47;;;;;;;2.25;1.70;;;;;;;22.01;74.40;100133.03;5013708;28;20371;-51
2022/06/26 07:43:12;;;;;;;2.72;2.00;;;;;;;22.12;75.06;100129.41;5013372;28;20045;-51
2022/06/26 07:45:38;;;;;;;2.70;2.00;;;;;;;22.17;74.46;100136.81;5031234;28;20068;-56
2022/06/26 07:48:06;;;;;;;2.58;1.70;;;;;;;22.29;73.77;100140.19;5013133;28;20037;-51
2022/06/26 07:50:35;;;;;;;2.90;2.15;;;;;;;22.31;72.66;100137.25;5013095;28;20033;-53
2022/06/26 07:53:02;;;;;;;2.08;1.73;;;;;;;22.52;71.98;100138.31;5031054;28;20494;-50
2022/06/26 07:55:28;;;;;;;2.28;1.70;;;;;;;22.51;68.47;100142.91;5031183;28;20037;-50
2022/06/26 07:57:53;;;;;;;2.15;1.40;;;;;;;22.46;69.29;100135.53;5031132;28;20086;-51
2022/06/26 08:00:19;;;;;;;3.38;1.80;;;;;;;22.56;71.20;100134.84;5030269;28;20049;-51
2022/06/26 08:02:44;;;;;;;2.60;2.03;;;;;;;22.64;69.41;100138.97;5030966;28;20107;-54
2022/06/26 08:05:11;;;;;;;3.72;1.75;;;;;;;22.79;68.63;100130.16;5030933;28;20104;-54
2022/06/26 08:07:36;;;;;;;3.05;1.50;;;;;;;22.89;67.13;100136.56;5030937;28;20155;-51
2022/06/26 08:10:02;;;;;;;2.17;1.50;;;;;;;22.98;66.31;100134.19;5030524;28;20061;-52
2022/06/26 08:12:27;;;;;;;1.95;1.58;;;;;;;22.72;66.19;100139.34;5030925;28;20060;-50
2022/06/26 08:14:53;;;;;;;1.73;1.60;;;;;;;22.98;65.91;100136.91;5031066;28;20037;-51
2022/06/26 08:17:18;;;;;;;1.50;1.40;;;;;;;23.04;65.39;100140.50;5030313;28;20110;-49
2022/06/26 08:19:44;;;;;;;2.35;1.60;;;;;;;22.99;66.72;100147.50;5030421;28;20033;-50
2022/06/26 08:22:09;;;;;;;3.17;1.70;;;;;;;23.20;66.24;100150.41;5030826;28;20048;-59
2022/06/26 08:24:40;;;;;;;2.55;1.75;;;;;;;23.38;66.63;100150.00;5031298;28;20053;-56
2022/06/26 08:27:05;;;;;;;1.75;1.45;;;;;;;23.59;67.36;100134.66;5030635;28;20224;-53
2022/06/26 08:29:31;;;;;;;2.28;1.60;;;;;;;23.64;65.54;100129.28;5030296;28;20493;-56
2022/06/26 08:31:56;;;;;;;2.58;1.50;;;;;;;23.75;64.66;100135.63;5030810;28;20044;-54
2022/06/26 08:34:22;;;;;;;1.83;1.60;;;;;;;23.92;63.99;100138.97;5030873;28;20084;-54
2022/06/26 08:36:47;;;;;;;4.45;1.70;;;;;;;24.14;64.89;100146.19;5030743;28;20041;-51
2022/06/26 08:39:13;;;;;;;2.88;1.40;;;;;;;24.14;63.92;100144.28;5030260;28;20036;-50
2022/06/26 08:41:40;;;;;;;3.45;2.85;;;;;;;24.43;63.53;100149.31;5030681;28;20490;-55
2022/06/26 08:44:07;;;;;;;3.10;1.83;;;;;;;24.62;63.16;100143.09;5030553;28;20123;-55
2022/06/26 08:46:37;;;;;;;2.20;1.70;;;;;;;24.72;59.77;100142.31;5030754;28;20048;-54
2022/06/26 08:49:07;;;;;;;1.85;1.70;;;;;;;24.60;59.53;100139.84;5032235;28;20039;-57
2022/06/26 08:51:35;;;;;;;2.25;1.30;;;;;;;24.37;61.52;100137.56;5034188;28;20025;-54
2022/06/26 08:54:01;;;;;;;2.55;1.42;;;;;;;24.70;65.42;100133.59;5034166;28;20061;-53
2022/06/26 08:56:27;;;;;;;1.97;1.27;;;;;;;24.89;64.49;100125.72;5033986;28;20083;-56
2022/06/26 08:58:54;;;;;;;1.52;1.30;;;;;;;25.07;62.56;100132.59;5034158;28;20034;-53
2022/06/26 09:01:20;;;;;;;2.05;1.45;;;;;;;25.27;61.56;100135.31;5034191;28;20057;-62
2022/06/26 09:03:45;;;;;;;3.33;1.58;;;;;;;25.39;62.01;100140.50;5034297;28;20487;-62
2022/06/26 09:06:11;;;;;;;2.58;1.70;;;;;;;25.46;61.46;100154.66;5034175;28;20048;-62
2022/06/26 09:08:44;;;;;;;3.05;2.15;;;;;;;25.63;60.19;100149.75;5033861;28;20056;-61
2022/06/26 09:11:10;;;;;;;3.33;1.33;;;;;;;25.56;63.33;100153.81;5033949;28;20423;-60
2022/06/26 09:13:41;;;;;;;2.70;1.80;;;;;;;25.30;61.22;100153.88;5034075;28;20045;-61
2022/06/26 09:16:06;;;;;;;2.88;1.45;;;;;;;25.59;58.44;100151.38;5033750;28;20033;-62
2022/06/26 09:18:36;;;;;;;2.10;1.27;;;;;;;25.56;58.79;100153.81;5033613;28;20087;-61
2022/06/26 09:21:07;;;;;;;3.03;1.50;;;;;;;25.59;59.67;100151.38;5033799;28;20125;-60
2022/06/26 09:23:34;;;;;;;1.67;1.23;;;;;;;25.65;59.84;100144.81;5033936;28;20104;-61
2022/06/26 09:26:00;;;;;;;1.30;1.10;;;;;;;25.76;56.75;100147.56;5033698;28;20120;-62
2022/06/26 09:28:26;;;;;;;4.05;2.88;;;;;;;25.87;56.61;100144.53;5033646;28;20108;-62
2022/06/26 09:30:56;;;;;;;1.60;1.40;;;;;;;26.09;56.17;100146.13;5033827;28;20463;-62
2022/06/26 09:33:28;;;;;;;1.30;1.20;;;;;;;26.22;56.97;100143.59;5033938;28;20041;-62
2022/06/26 09:35:55;;;;;;;4.45;1.30;;;;;;;26.17;54.66;100142.81;5033665;28;20087;-62
2022/06/26 09:38:26;;;;;;;2.20;1.30;;;;;;;26.38;53.38;100138.06;5015767;28;20133;-61
2022/06/26 09:41:03;;;;;;;1.85;1.17;;;;;;;26.37;54.18;100141.91;5033636;28;20038;-62
2022/06/26 09:43:30;;;;;;;;;;;;;;;26.41;55.59;100140.28;5033966;28;20056;-62
2022/06/26 09:45:57;;;;;;;1.65;1.10;;;;;;;26.29;55.52;100142.50;5033442;28;19963;-62
2022/06/26 09:48:26;;;;;;;;;;;;;;;26.52;51.92;100134.47;5033556;28;20035;-63
2022/06/26 09:50:53;;;;;;;1.10;1.00;;;;;;;26.36;53.84;100145.72;5033319;28;19920;-62
2022/06/26 09:53:19;;;;;;;2.35;1.00;;;;;;;26.15;57.10;100148.56;5033494;28;20121;-62
2022/06/26 09:55:49;;;;;;;2.13;0.95;;;;;;;26.26;53.56;100152.03;5033439;28;20083;-61
2022/06/26 09:58:15;;;;;;;2.28;1.00;;;;;;;26.07;53.62;100146.38;5033225;28;20056;-62
2022/06/26 10:00:41;;;;;;;3.10;1.33;;;;;;;26.13;54.55;100148.00;5033112;28;20017;-59
2022/06/26 10:08:42;;;;;;;1.48;0.93;;;;;;;25.95;52.95;100129.50;5032872;28;20025;-61
2022/06/26 10:11:08;;;;;;;2.03;1.00;;;;;;;26.13;54.05;100130.81;5015287;28;20032;-57
2022/06/26 10:13:37;;;;;;;1.70;1.02;;;;;;;25.92;55.09;100130.88;5032835;28;20060;-66
2022/06/26 10:16:21;;;;;;;2.72;1.27;;;;;;;26.00;57.78;100132.22;5032785;28;20116;-54
2022/06/26 10:19:02;;;;;;;3.13;1.40;;;;;;;25.90;55.85;100133.06;5032700;28;20044;-58
2022/06/26 10:21:27;;;;;;;1.27;1.00;;;;;;;25.77;58.22;100132.84;5032794;28;20041;-59
2022/06/26 10:24:02;;;;;;;2.67;1.15;;;;;;;25.45;57.54;100139.41;5032761;28;20100;-59
2022/06/26 10:26:28;;;;;;;1.40;1.30;;;;;;;25.52;58.93;100139.94;5032736;28;20092;-58
2022/06/26 10:28:58;;;;;;;2.55;1.42;;;;;;;25.74;58.30;100145.09;5032927;28;20073;-59
2022/06/26 10:31:23;;;;;;;1.63;1.10;;;;;;;25.79;56.79;100125.19;5032753;28;20041;-58
2022/06/26 10:33:49;;;;;;;2.10;1.17;;;;;;;25.75;56.56;100132.28;5015043;28;20037;-58
2022/06/26 10:36:24;;;;;;;1.20;1.10;;;;;;;25.76;58.65;100134.75;5014932;28;20073;-58
2022/06/26 10:38:49;;;;;;;1.20;1.00;;;;;;;25.73;58.57;100138.00;5032134;28;20091;-59
2022/06/26 10:44:03;;;;;;;1.13;1.02;;;;;;;26.03;57.31;100131.66;5023203;28;20065;-52
2022/06/26 10:46:58;;;;;;;1.00;1.00;;;;;;;26.18;58.77;100128.88;5023039;28;20495;-58
2022/06/26 10:49:24;;;;;;;1.80;1.10;;;;;;;26.33;56.89;100135.34;5015615;28;20054;-57
2022/06/26 10:51:50;;;;;;;2.85;1.40;;;;;;;26.33;54.38;100129.91;5032501;28;20032;-60
2022/06/26 10:54:21;;;;;;;1.23;1.02;;;;;;;26.32;54.03;100123.63;5032204;28;20152;-60
2022/06/26 10:56:50;;;;;;;2.00;1.00;;;;;;;26.54;54.01;100126.03;5032156;28;20099;-60
2022/06/26 10:59:20;;;;;;;1.70;1.15;;;;;;;26.46;53.32;100121.94;5032133;28;20025;-60
2022/06/26 11:01:46;;;;;;;1.58;1.10;;;;;;;26.72;52.69;100122.59;5032213;28;20034;-57
2022/06/26 11:04:11;;;;;;;1.83;1.10;;;;;;;26.81;52.94;100116.56;5032165;28;20056;-59
2022/06/26 11:06:42;;;;;;;1.52;1.00;;;;;;;26.97;52.26;100118.88;5032012;28;20110;-58
2022/06/26 11:09:08;;;;;;;2.83;1.17;;;;;;;26.79;54.53;100117.63;5031880;28;20454;-59
2022/06/26 11:11:34;;;;;;;2.17;1.60;;;;;;;26.93;52.87;100117.00;5031569;28;20475;-57
2022/06/26 11:14:08;;;;;;;2.15;1.02;;;;;;;26.82;51.97;100110.00;5031906;28;20043;-60
2022/06/26 11:16:38;;;;;;;1.17;1.08;;;;;;;26.64;51.77;100112.28;5031842;28;20033;-60
2022/06/26 11:19:20;;;;;;;1.45;1.20;;;;;;;26.85;51.59;100103.94;5031644;28;20041;-59
2022/06/26 11:21:46;;;;;;;1.30;1.10;;;;;;;27.10;50.41;100101.03;5031797;28;20045;-60
2022/06/26 11:24:11;;;;;;;1.40;1.10;;;;;;;27.09;50.38;100099.41;5031903;28;20118;-58
2022/06/26 11:26:37;;;;;;;2.20;1.00;;;;;;;27.19;52.46;100101.22;5031708;28;20133;-60
2022/06/26 11:29:04;;;;;;;2.03;1.20;;;;;;;27.19;51.13;100093.88;5013961;28;20443;-60
2022/06/26 11:31:32;;;;;;;0.93;0.93;;;;;;;26.69;52.16;100093.13;5031574;28;20493;-60
2022/06/26 11:34:14;;;;;;;1.92;1.17;;;;;;;26.93;51.30;100095.97;5014144;28;20042;-57
2022/06/26 11:36:51;;;;;;;1.75;1.27;;;;;;;26.71;51.67;100099.13;5031555;28;20037;-58
2022/06/26 11:39:17;;;;;;;1.20;1.00;;;;;;;26.77;52.18;100094.44;5031339;28;20033;-59
2022/06/26 11:41:43;;;;;;;2.22;1.38;;;;;;;26.94;52.40;100102.25;5031485;28;20084;-59
2022/06/26 11:44:09;;;;;;;1.50;1.33;;;;;;;27.08;52.98;100102.44;5013959;28;20041;-60
2022/06/26 11:46:34;;;;;;;1.65;1.38;;;;;;;26.80;54.43;100104.81;5031675;28;20453;-59
2022/06/26 11:49:00;;;;;;;1.52;1.30;;;;;;;26.65;54.52;100104.91;5031176;28;20057;-60
2022/06/26 11:51:29;;;;;;;1.42;1.30;;;;;;;26.87;56.21;100099.03;5031558;28;20719;-60
2022/06/26 11:53:55;;;;;;;1.35;1.25;;;;;;;27.03;53.24;100095.88;5031273;28;20041;-60
2022/06/26 11:56:23;;;;;;;1.38;1.27;;;;;;;27.49;53.64;100098.22;5031333;28;20122;-59
2022/06/26 11:58:51;;;;;;;1.40;1.30;;;;;;;27.46;52.40;100104.28;5031073;28;20494;-60
2022/06/26 12:01:17;;;;;;;1.40;1.30;;;;;;;27.45;51.43;100102.66;5031389;28;20418;-55
2022/06/26 12:03:45;;;;;;;3.30;1.20;;;;;;;27.00;51.42;100103.84;5031422;28;20490;-59
2022/06/26 12:06:11;;;;;;;1.67;1.30;;;;;;;26.92;53.04;100098.97;5013408;28;20037;-58
2022/06/26 12:08:37;;;;;;;1.42;1.08;;;;;;;27.21;53.36;100090.84;5031065;28;20176;-59
2022/06/26 12:11:02;;;;;;;4.20;1.45;;;;;;;27.17;51.27;100089.78;5031400;28;20095;-59
2022/06/26 12:13:30;;;;;;;1.45;1.25;;;;;;;27.08;52.51;100091.50;5031417;28;20128;-59
2022/06/26 12:16:07;;;;;;;3.38;1.60;;;;;;;27.26;51.01;100096.28;5031085;28;20037;-60
2022/06/26 12:18:37;;;;;;;1.55;1.35;;;;;;;27.12;52.12;100098.03;5031015;28;20508;-59
2022/06/26 12:21:13;;;;;;;2.85;1.30;;;;;;;27.18;53.84;100094.13;5031069;28;20041;-59
2022/06/26 12:23:39;;;;;;;1.58;1.13;;;;;;;27.11;51.33;100085.47;5033071;28;20053;-55
2022/06/26 12:26:06;;;;;;;1.60;1.50;;;;;;;27.13;50.77;100084.09;5035162;28;20095;-60
2022/06/26 12:28:32;;;;;;;1.58;1.30;;;;;;;27.81;48.53;100074.94;5034770;28;20379;-55
2022/06/26 12:31:00;;;;;;;3.38;1.40;;;;;;;28.06;48.73;100076.56;5034941;28;20123;-58
2022/06/26 12:33:26;;;;;;;1.52;1.30;;;;;;;28.04;49.36;100081.50;5034885;28;20073;-59
2022/06/26 12:35:51;;;;;;;2.97;1.30;;;;;;;27.90;51.82;100086.84;5034607;28;20048;-58
2022/06/26 12:38:27;;;;;;;1.27;1.15;;;;;;;28.06;50.56;100080.09;5034746;28;20037;-58
2022/06/26 12:40:54;;;;;;;2.40;1.50;;;;;;;28.12;51.02;100070.72;5034713;28;20445;-58
2022/06/26 12:43:19;;;;;;;1.50;1.40;;;;;;;27.44;50.02;100073.66;5034664;28;20044;-58
2022/06/26 12:45:45;;;;;;;2.60;1.40;;;;;;;27.15;49.03;100068.22;5034578;28;20490;-58
2022/06/26 12:48:10;;;;;;;2.83;1.50;;;;;;;27.21;50.23;100069.78;5034482;28;20041;-59
2022/06/26 12:50:36;;;;;;;1.83;1.40;;;;;;;27.73;50.97;100059.16;5034349;28;20048;-60
2022/06/26 12:53:02;;;;;;;2.25;1.70;;;;;;;28.24;49.37;100059.34;5034609;28;20080;-58
2022/06/26 12:55:28;;;;;;;1.50;1.35;;;;;;;28.65;47.62;100053.28;5034559;28;20121;-58
2022/06/26 12:57:53;;;;;;;1.60;1.45;;;;;;;29.15;46.40;100045.38;5034401;28;20681;-60
2022/06/26 13:00:18;;;;;;;1.50;1.40;;;;;;;29.81;46.60;100049.63;5034075;28;20514;-60
2022/06/26 13:02:44;;;;;;;2.97;1.40;;;;;;;30.59;45.86;100050.41;5016564;28;20475;-60
2022/06/26 13:05:09;;;;;;;1.75;1.38;;;;;;;31.19;41.55;100051.97;5034311;28;20129;-63
2022/06/26 13:07:35;;;;;;;1.73;1.50;;;;;;;31.52;40.77;100056.03;5034254;28;20041;-63
2022/06/26 13:10:00;;;;;;;2.95;1.40;;;;;;;31.16;38.96;100058.88;5033925;28;20552;-63
2022/06/26 13:12:26;;;;;;;1.50;1.40;;;;;;;31.58;39.17;100053.94;5034298;28;20482;-63
2022/06/26 13:14:52;;;;;;;1.23;1.13;;;;;;;31.16;42.04;100041.56;5034270;28;20033;-63
2022/06/26 13:17:17;;;;;;;1.38;1.20;;;;;;;31.22;40.79;100043.06;5034159;28;20124;-63
2022/06/26 13:19:42;;;;;;;1.30;1.20;;;;;;;31.03;40.74;100041.34;5016063;28;20096;-63
2022/06/26 13:22:08;;;;;;;1.37;1.27;;;;;;;30.04;42.54;100033.22;5034222;28;20486;-63
2022/06/26 13:24:33;;;;;;;1.45;1.10;;;;;;;29.94;41.42;100029.56;5034131;28;20029;-63
2022/06/26 13:27:00;;;;;;;1.83;0.98;;;;;;;29.28;43.42;100025.38;5033982;28;20406;-63
2022/06/26 13:29:25;;;;;;;5.43;1.15;;;;;;;29.26;45.70;100024.84;5033709;28;20037;-62
2022/06/26 13:31:52;;;;;;;1.30;1.20;;;;;;;28.93;45.29;100024.06;5034097;28;20035;-63
2022/06/26 13:34:17;;;;;;;1.05;1.00;;;;;;;28.99;44.48;100014.66;5033752;28;20044;-63
2022/06/26 13:36:43;;;;;;;1.30;1.20;;;;;;;28.88;44.62;100013.97;5016258;28;20042;-63
2022/06/26 13:39:09;;;;;;;1.67;1.13;;;;;;;28.38;44.71;100015.63;5033561;28;20042;-63
2022/06/26 13:41:34;;;;;;;1.20;1.10;;;;;;;28.36;46.36;100004.13;5033709;28;20033;-63
2022/06/26 13:44:01;;;;;;;1.25;1.13;;;;;;;27.83;46.19;100009.78;5033602;28;20597;-63
2022/06/26 13:46:27;;;;;;;2.92;1.10;;;;;;;28.17;47.42;100003.28;5033639;28;20041;-63
2022/06/26 13:48:52;;;;;;;1.10;1.00;;;;;;;28.44;46.58;100003.50;5033305;28;20087;-63
2022/06/26 13:51:18;;;;;;;1.10;1.00;;;;;;;27.83;45.90;99998.84;5033597;28;20116;-63
2022/06/26 13:53:44;;;;;;;1.55;0.93;;;;;;;28.28;46.60;100008.34;5033600;28;20056;-63
2022/06/26 13:56:09;;;;;;;1.05;1.00;;;;;;;27.91;47.86;100000.09;5033407;28;20057;-63
2022/06/26 13:58:35;;;;;;;0.93;0.85;;;;;;;28.21;47.24;99999.69;5033074;28;20033;-62
2022/06/26 14:01:03;;;;;;;2.17;1.05;;;;;;;27.95;45.54;99992.94;5033199;28;20022;-63
2022/06/26 14:03:29;;;;;;;1.27;1.17;;;;;;;28.21;44.92;99994.19;5033223;28;20045;-63
2022/06/26 14:05:55;;;;;;;1.20;1.05;;;;;;;27.61;47.12;99995.81;5033273;28;20037;-63
2022/06/26 14:08:21;;;;;;;1.15;1.05;;;;;;;27.87;46.56;99993.59;5033014;28;20103;-63
2022/06/26 14:10:46;;;;;;;1.90;1.05;;;;;;;27.95;46.82;100001.16;5033035;28;20029;-60
2022/06/26 14:13:11;;;;;;;6.25;5.18;;;;;;;28.10;47.46;99990.81;5015311;28;20045;-62
2022/06/26 14:15:37;;;;;;;1.67;1.27;;;;;;;28.23;46.95;99994.72;5033010;28;20072;-62
2022/06/26 14:18:02;;;;;;;2.17;1.10;;;;;;;28.21;47.11;99987.91;5032951;28;20075;-62
2022/06/26 14:20:28;;;;;;;1.20;1.10;;;;;;;28.33;45.84;99991.06;5032568;28;20399;-61
2022/06/26 14:25:57;;;;;;;1.55;1.30;;;;;;;28.24;45.81;99971.72;4994878;28;20065;-59
2022/06/26 14:28:24;;;;;;;1.10;1.00;;;;;;;28.43;46.10;99962.69;5032830;28;20091;-63
2022/06/26 14:30:50;;;;;;;1.05;0.90;;;;;;;28.53;45.87;99960.59;5032790;28;20022;-63
2022/06/26 14:33:18;;;;;;;0.93;0.82;;;;;;;28.24;45.99;99960.78;5032522;28;20041;-63
2022/06/26 14:35:44;;;;;;;1.00;0.90;;;;;;;28.11;47.53;99956.03;5032573;28;20067;-62
2022/06/26 14:38:10;;;;;;;1.23;1.08;;;;;;;28.28;45.74;99955.50;5032234;28;20147;-62
2022/06/26 14:40:36;;;;;;;1.45;1.20;;;;;;;27.97;47.36;99950.47;5032236;28;20135;-62
2022/06/26 14:43:02;;;;;;;1.00;0.90;;;;;;;27.92;47.38;99947.81;5032452;28;20184;-63
2022/06/26 14:45:27;;;;;;;1.67;1.00;;;;;;;28.02;47.30;99941.38;5031760;28;20510;-61
2022/06/26 14:47:53;;;;;;;1.23;1.13;;;;;;;27.65;48.63;99936.66;5032061;28;20041;-62
2022/06/26 14:50:19;;;;;;;0.93;0.90;;;;;;;27.82;48.74;99934.28;5032040;28;20517;-63
2022/06/26 14:52:44;;;;;;;3.05;1.52;;;;;;;27.72;46.85;99932.50;5032229;28;20034;-62
2022/06/26 14:55:11;;;;;;;1.48;1.15;;;;;;;27.48;47.77;99927.03;5032069;28;20095;-63
2022/06/26 14:57:37;;;;;;;1.52;1.20;;;;;;;27.68;47.76;99923.25;5032250;28;20034;-63
2022/06/26 15:00:04;;;;;;;1.85;1.00;;;;;;;27.50;48.08;99911.13;5014149;28;20044;-63
2022/06/26 15:02:30;;;;;;;1.52;1.20;;;;;;;27.62;47.84;99915.38;5031929;28;20072;-63
2022/06/26 15:04:55;;;;;;;1.27;1.10;;;;;;;27.62;46.05;99912.63;5014288;28;20049;-63
2022/06/26 15:07:20;;;;;;;1.30;1.15;;;;;;;27.42;47.42;99908.25;5031924;28;20037;-62
2022/06/26 15:09:46;;;;;;;1.50;1.20;;;;;;;27.62;48.01;99909.91;5031603;28;20052;-63
2022/06/26 15:12:11;;;;;;;3.13;1.63;;;;;;;27.67;46.88;99918.84;5031823;28;20060;-63
2022/06/26 15:14:37;;;;;;;2.05;1.85;;;;;;;27.82;47.27;99917.84;5032008;28;20525;-63
2022/06/26 15:17:02;;;;;;;1.55;1.45;;;;;;;27.88;46.93;99916.66;5031874;28;20037;-63
2022/06/26 15:19:28;;;;;;;2.60;1.70;;;;;;;28.03;47.77;99921.91;5031799;28;20043;-63
2022/06/26 15:21:53;;;;;;;3.05;1.17;;;;;;;27.90;47.56;99924.56;5031701;28;20550;-63
2022/06/26 15:24:19;;;;;;;1.77;1.02;;;;;;;27.75;46.07;99923.69;5031796;28;20073;-63
2022/06/26 15:26:45;;;;;;;1.35;1.10;;;;;;;28.00;46.89;99911.56;5031767;28;20069;-63
2022/06/26 15:29:11;;;;;;;2.38;1.20;;;;;;;28.16;46.90;99914.06;5031629;28;20379;-63
2022/06/26 15:31:36;;;;;;;1.85;1.60;;;;;;;28.15;46.70;99906.97;5031851;28;20091;-63
2022/06/26 15:34:02;;;;;;;1.38;1.27;;;;;;;28.19;45.93;99906.09;5014207;28;20124;-63
2022/06/26 15:36:27;;;;;;;1.20;1.10;;;;;;;28.18;45.38;99909.94;5031722;28;20037;-63
2022/06/26 15:38:53;;;;;;;1.80;1.40;;;;;;;28.11;44.62;99907.56;5031294;28;20045;-63
2022/06/26 15:41:18;;;;;;;1.65;1.30;;;;;;;28.18;45.60;99906.38;5031638;28;20180;-63
2022/06/26 15:43:43;;;;;;;3.17;2.88;;;;;;;28.13;44.78;99902.59;5031680;28;20052;-63
2022/06/26 15:46:09;;;;;;;1.75;1.40;;;;;;;27.94;45.56;99893.59;5031553;28;20160;-63
2022/06/26 15:48:35;;;;;;;2.67;1.20;;;;;;;28.03;46.73;99896.47;5031296;28;20033;-63
2022/06/26 15:51:00;;;;;;;2.03;1.02;;;;;;;27.82;47.40;99893.22;5031552;28;20455;-63
2022/06/26 15:53:26;;;;;;;3.78;2.40;;;;;;;27.97;47.58;99887.50;5031676;28;20037;-63
2022/06/26 15:55:52;;;;;;;2.00;1.60;;;;;;;27.99;47.34;99885.31;5031312;28;20426;-63
2022/06/26 15:58:17;;;;;;;1.20;1.10;;;;;;;28.04;47.71;99884.44;5034110;28;20474;-63